createdAt,value
2023-01-20T00:01:15.101Z,4.70
2023-01-20T00:03:44.373Z,5.03
2023-01-20T00:06:12.217Z,5.00
2023-01-20T00:08:40.022Z,5.00
2023-01-20T00:11:07.959Z,4.93
2023-01-20T00:13:35.549Z,4.80
2023-01-20T00:16:04.975Z,4.40
2023-01-20T00:18:33.344Z,4.60
2023-01-20T00:21:03.020Z,4.67
2023-01-20T00:23:30.754Z,4.77
2023-01-20T00:25:58.247Z,4.87
2023-01-20T00:28:25.782Z,4.73
2023-01-20T00:30:53.512Z,4.10
2023-01-20T00:33:22.321Z,4.60
2023-01-20T00:35:49.765Z,4.37
2023-01-20T00:38:17.686Z,4.53
2023-01-20T00:40:45.140Z,4.17
2023-01-20T00:43:13.196Z,4.30
2023-01-20T00:45:41.783Z,4.50
2023-01-20T00:48:09.220Z,4.07
2023-01-20T00:50:38.001Z,4.10
2023-01-20T00:53:05.455Z,4.27
2023-01-20T00:55:32.922Z,4.00
2023-01-20T00:58:00.382Z,4.00
2023-01-20T01:00:28.568Z,4.30
2023-01-20T01:02:56.031Z,4.30
2023-01-20T01:05:23.689Z,4.27
2023-01-20T01:07:52.553Z,4.30
2023-01-20T01:10:20.099Z,4.13
2023-01-20T01:12:47.538Z,4.37
2023-01-20T01:15:15.347Z,3.40
2023-01-20T01:17:43.897Z,4.30
2023-01-20T01:20:11.978Z,4.37
2023-01-20T01:22:39.619Z,4.23
2023-01-20T01:25:08.747Z,4.30
2023-01-20T01:27:36.269Z,3.90
2023-01-20T01:30:03.835Z,4.20
2023-01-20T01:32:31.376Z,4.20
2023-01-20T01:34:58.800Z,4.20
2023-01-20T01:37:26.327Z,4.67
2023-01-20T01:39:53.786Z,4.70
2023-01-20T01:42:24.055Z,4.20
2023-01-20T01:45:10.273Z,4.83
2023-01-20T01:47:39.412Z,4.47
2023-01-20T01:50:07.612Z,4.30
2023-01-20T01:52:35.284Z,4.10
2023-01-20T01:55:03.461Z,4.13
2023-01-20T01:57:32.736Z,4.40
2023-01-20T02:00:00.271Z,4.40
2023-01-20T02:02:28.220Z,4.03
2023-01-20T02:04:55.738Z,4.60
2023-01-20T02:07:23.239Z,4.00
2023-01-20T02:09:50.721Z,3.93
2023-01-20T02:12:19.620Z,4.80
2023-01-20T02:14:49.140Z,4.20
2023-01-20T02:17:22.088Z,4.23
2023-01-20T02:20:03.778Z,4.60
2023-01-20T02:22:37.099Z,4.27
2023-01-20T02:25:27.063Z,4.50
2023-01-20T02:28:04.395Z,3.97
2023-01-20T02:30:47.553Z,3.80
2023-01-20T02:33:18.015Z,4.00
2023-01-20T02:35:46.788Z,4.10
2023-01-20T02:38:17.619Z,4.10
2023-01-20T02:40:49.646Z,4.00
2023-01-20T02:43:19.943Z,4.07
2023-01-20T02:45:49.122Z,3.67
2023-01-20T02:48:23.164Z,3.93
2023-01-20T02:50:55.027Z,3.13
2023-01-20T02:53:23.375Z,3.80
2023-01-20T02:55:52.324Z,3.37
2023-01-20T02:58:22.832Z,3.47
2023-01-20T03:00:51.778Z,3.73
2023-01-20T03:03:22.865Z,3.67
2023-01-20T03:05:53.167Z,3.43
2023-01-20T03:08:21.151Z,3.50
2023-01-20T03:10:49.013Z,4.60
2023-01-20T03:13:20.479Z,3.60
2023-01-20T03:15:54.882Z,3.57
2023-01-20T03:18:23.923Z,3.90
2023-01-20T03:20:51.392Z,3.40
2023-01-20T03:23:18.948Z,3.77
2023-01-20T03:25:47.052Z,3.90
2023-01-20T03:28:14.981Z,3.70
2023-01-20T03:30:42.476Z,3.50
2023-01-20T03:33:10.120Z,3.83
2023-01-20T03:35:39.112Z,3.50
2023-01-20T03:38:06.726Z,3.80
2023-01-20T03:40:38.382Z,3.50
2023-01-20T03:43:10.833Z,3.67
2023-01-20T03:45:42.296Z,3.87
2023-01-20T03:48:14.163Z,3.77
2023-01-20T03:50:46.289Z,3.80
2023-01-20T03:53:19.845Z,3.80
2023-01-20T03:55:49.029Z,3.87
2023-01-20T03:58:20.558Z,3.70
2023-01-20T04:00:49.594Z,3.47
2023-01-20T04:03:18.932Z,3.60
2023-01-20T04:05:49.085Z,3.63
2023-01-20T04:08:17.869Z,3.63
2023-01-20T04:10:47.031Z,3.93
2023-01-20T04:13:14.870Z,3.60
2023-01-20T04:15:44.330Z,3.83
2023-01-20T04:18:12.882Z,3.60
2023-01-20T04:20:40.887Z,3.77
2023-01-20T04:23:13.533Z,3.50
2023-01-20T04:25:41.031Z,3.50
2023-01-20T04:28:08.628Z,3.80
2023-01-20T04:30:36.053Z,3.80
2023-01-20T04:33:03.489Z,3.60
2023-01-20T04:35:31.009Z,4.17
2023-01-20T04:37:58.477Z,3.67
2023-01-20T04:40:27.305Z,3.87
2023-01-20T04:42:54.801Z,3.47
2023-01-20T04:45:22.257Z,3.73
2023-01-20T04:47:49.732Z,3.93
2023-01-20T04:50:17.548Z,4.37
2023-01-20T04:52:45.007Z,3.83
2023-01-20T04:55:12.767Z,3.93
2023-01-20T04:57:41.876Z,3.87
2023-01-20T05:00:10.037Z,4.17
2023-01-20T05:02:37.580Z,3.90
2023-01-20T05:05:05.373Z,4.47
2023-01-20T05:07:32.819Z,4.43
2023-01-20T05:10:00.266Z,4.77
2023-01-20T05:12:28.462Z,5.00
2023-01-20T05:14:57.268Z,4.47
2023-01-20T05:17:24.727Z,4.67
2023-01-20T05:19:52.210Z,4.63
2023-01-20T05:22:19.641Z,4.27
2023-01-20T05:25:05.194Z,4.70
2023-01-20T05:27:34.937Z,4.43
2023-01-20T05:30:03.732Z,5.10
2023-01-20T05:32:31.185Z,4.97
2023-01-20T05:34:58.639Z,4.63
2023-01-20T05:37:26.086Z,4.80
2023-01-20T05:39:53.524Z,4.47
2023-01-20T05:42:20.930Z,4.40
2023-01-20T05:44:48.405Z,4.37
2023-01-20T05:47:17.262Z,4.40
2023-01-20T05:49:44.967Z,4.63
2023-01-20T05:52:12.446Z,4.90
2023-01-20T05:54:39.878Z,4.43
2023-01-20T05:57:07.279Z,4.63
2023-01-20T05:59:34.787Z,4.63
2023-01-20T06:02:02.281Z,4.83
2023-01-20T06:04:31.080Z,5.20
2023-01-20T06:06:58.684Z,4.60
2023-01-20T06:09:26.164Z,4.43
2023-01-20T06:11:53.602Z,5.10
2023-01-20T06:14:21.057Z,4.43
2023-01-20T06:16:48.564Z,4.83
2023-01-20T06:19:16.087Z,5.00
2023-01-20T06:21:46.845Z,5.17
2023-01-20T06:24:14.527Z,5.20
2023-01-20T06:26:41.953Z,5.30
2023-01-20T06:29:09.385Z,5.13
2023-01-20T06:31:36.855Z,5.20
2023-01-20T06:34:04.676Z,4.97
2023-01-20T06:36:32.136Z,5.03
2023-01-20T06:39:00.905Z,5.33
2023-01-20T06:41:28.492Z,5.20
2023-01-20T06:43:55.991Z,5.80
2023-01-20T06:46:23.492Z,6.23
2023-01-20T06:48:51.011Z,7.90
2023-01-20T06:51:19.515Z,8.20
2023-01-20T06:53:47.349Z,7.83
2023-01-20T06:56:16.672Z,6.07
2023-01-20T06:58:44.795Z,6.10
2023-01-20T07:01:12.903Z,5.93
2023-01-20T07:03:42.367Z,6.97
2023-01-20T07:06:15.679Z,6.80
2023-01-20T07:08:43.789Z,5.63
2023-01-20T07:11:11.329Z,5.67
2023-01-20T07:13:40.413Z,5.33
2023-01-20T07:16:10.991Z,5.70
2023-01-20T07:18:39.858Z,5.30
2023-01-20T07:21:07.696Z,4.97
2023-01-20T07:23:35.130Z,5.37
2023-01-20T07:26:03.281Z,5.63
2023-01-20T07:28:31.091Z,5.00
2023-01-20T07:31:04.727Z,5.23
2023-01-20T07:33:32.592Z,5.60
2023-01-20T07:36:00.209Z,4.97
2023-01-20T07:38:28.437Z,5.50
2023-01-20T07:40:57.713Z,5.07
2023-01-20T07:43:25.411Z,5.20
2023-01-20T07:45:55.500Z,5.17
2023-01-20T07:48:24.923Z,4.60
2023-01-20T07:50:57.705Z,5.80
2023-01-20T07:53:25.182Z,5.10
2023-01-20T07:55:52.647Z,5.40
2023-01-20T07:58:20.170Z,5.50
2023-01-20T08:00:49.043Z,5.40
2023-01-20T08:03:17.121Z,6.67
2023-01-20T08:05:45.982Z,6.57
2023-01-20T08:08:13.478Z,6.20
2023-01-20T08:10:40.981Z,6.60
2023-01-20T08:13:08.475Z,6.73
2023-01-20T08:15:35.971Z,6.07
2023-01-20T08:18:03.472Z,6.20
2023-01-20T08:20:30.931Z,5.87
2023-01-20T08:22:59.743Z,6.27
2023-01-20T08:25:27.179Z,6.23
2023-01-20T08:27:54.667Z,6.77
2023-01-20T08:30:22.263Z,5.90
2023-01-20T08:32:50.028Z,5.93
2023-01-20T08:35:17.740Z,6.40
2023-01-20T08:37:45.251Z,5.93
2023-01-20T08:40:14.240Z,6.30
2023-01-20T08:42:41.738Z,5.53
2023-01-20T08:45:10.087Z,5.93
2023-01-20T08:47:37.951Z,5.57
2023-01-20T08:50:06.141Z,5.90
2023-01-20T08:52:34.019Z,5.67
2023-01-20T08:55:02.115Z,5.33
2023-01-20T08:57:30.928Z,6.37
2023-01-20T08:59:58.410Z,6.57
2023-01-20T09:02:25.997Z,6.47
2023-01-20T09:04:54.508Z,6.27
2023-01-20T09:07:22.135Z,7.00
2023-01-20T09:09:49.669Z,5.80
2023-01-20T09:12:17.135Z,6.17
2023-01-20T09:14:46.672Z,5.50
2023-01-20T09:17:15.079Z,5.53
2023-01-20T09:19:42.562Z,5.57
2023-01-20T09:22:10.005Z,6.43
2023-01-20T09:24:37.469Z,6.20
2023-01-20T09:27:04.957Z,5.50
2023-01-20T09:29:32.440Z,5.77
2023-01-20T09:32:02.147Z,6.10
2023-01-20T09:34:29.841Z,5.67
2023-01-20T09:36:58.075Z,5.80
2023-01-20T09:39:43.169Z,6.13
2023-01-20T09:42:39.077Z,5.93
2023-01-20T09:45:22.612Z,7.00
2023-01-20T09:47:51.632Z,6.17
2023-01-20T09:50:41.012Z,6.10
2023-01-20T09:53:15.775Z,6.83
2023-01-20T09:55:49.905Z,6.70
2023-01-20T09:58:21.600Z,6.80
2023-01-20T10:00:52.225Z,6.40
2023-01-20T10:03:23.363Z,6.83
2023-01-20T10:05:51.980Z,6.87
2023-01-20T10:08:21.860Z,6.53
2023-01-20T10:10:51.850Z,7.40
2023-01-20T10:13:21.367Z,6.67
2023-01-20T10:15:51.517Z,7.37
2023-01-20T10:18:21.547Z,7.70
2023-01-20T10:20:51.833Z,7.60
2023-01-20T10:23:22.676Z,7.90
2023-01-20T10:25:52.115Z,8.80
2023-01-20T10:28:22.235Z,7.57
2023-01-20T10:30:50.275Z,7.23
2023-01-20T10:33:22.077Z,6.97
2023-01-20T10:35:53.088Z,7.00
2023-01-20T10:38:23.608Z,7.07
2023-01-20T10:40:54.758Z,7.33
2023-01-20T10:43:22.297Z,7.27
2023-01-20T10:45:59.329Z,7.77
2023-01-20T10:48:34.550Z,7.47
2023-01-20T10:51:06.024Z,7.80
2023-01-20T10:53:37.050Z,7.60
2023-01-20T10:56:17.688Z,9.10
2023-01-20T10:58:46.977Z,8.70
2023-01-20T11:01:16.126Z,7.80
2023-01-20T11:03:44.494Z,7.40
2023-01-20T11:06:18.226Z,7.40
2023-01-20T11:08:45.693Z,7.30
2023-01-20T11:11:14.660Z,8.83
2023-01-20T11:13:42.194Z,8.10
2023-01-20T11:16:13.422Z,7.47
2023-01-20T11:18:40.998Z,7.77
2023-01-20T11:21:09.668Z,8.20
2023-01-20T11:23:40.357Z,8.00
2023-01-20T11:26:10.825Z,7.23
2023-01-20T11:28:45.867Z,7.73
2023-01-20T11:31:13.427Z,7.67
2023-01-20T11:33:40.955Z,8.07
2023-01-20T11:36:17.363Z,7.77
2023-01-20T11:38:47.057Z,6.83
2023-01-20T11:41:21.909Z,7.00
2023-01-20T11:43:50.175Z,7.90
2023-01-20T11:46:25.597Z,7.20
2023-01-20T11:49:06.885Z,6.73
2023-01-20T11:51:34.375Z,6.77
2023-01-20T11:54:09.334Z,6.87
2023-01-20T11:56:40.565Z,6.77
2023-01-20T11:59:17.763Z,6.60
2023-01-20T12:01:52.967Z,7.00
2023-01-20T12:04:39.202Z,6.57
2023-01-20T12:07:09.307Z,6.63
2023-01-20T12:09:40.269Z,6.50
2023-01-20T12:12:09.529Z,7.03
2023-01-20T12:14:39.096Z,7.13
2023-01-20T12:17:11.148Z,7.33
2023-01-20T12:19:45.126Z,6.87
2023-01-20T12:22:13.970Z,7.43
2023-01-20T12:25:03.047Z,6.73
2023-01-20T12:27:31.068Z,6.60
2023-01-20T12:30:00.992Z,6.77
2023-01-20T12:32:29.166Z,6.77
2023-01-20T12:34:56.771Z,6.63
2023-01-20T12:37:27.356Z,5.60
2023-01-20T12:40:07.312Z,6.40
2023-01-20T12:42:44.385Z,6.80
2023-01-20T12:45:16.866Z,6.63
2023-01-20T12:47:50.958Z,6.57
2023-01-20T12:50:24.430Z,7.57
2023-01-20T12:52:59.661Z,5.97
2023-01-20T12:55:39.029Z,6.53
2023-01-20T12:58:12.859Z,6.63
2023-01-20T13:00:52.896Z,6.10
2023-01-20T13:03:32.852Z,7.40
2023-01-20T13:06:13.213Z,6.60
2023-01-20T13:08:48.253Z,7.00
2023-01-20T13:11:22.375Z,6.63
2023-01-20T13:13:57.569Z,6.87
2023-01-20T13:16:30.385Z,7.53
2023-01-20T13:19:03.791Z,6.97
2023-01-20T13:21:32.051Z,6.67
2023-01-20T13:24:00.998Z,6.83
2023-01-20T13:26:33.393Z,7.13
2023-01-20T13:29:02.299Z,6.80
2023-01-20T13:31:31.845Z,6.80
2023-01-20T13:34:14.888Z,6.60
2023-01-20T13:37:03.447Z,7.97
2023-01-20T13:39:40.523Z,6.80
2023-01-20T13:45:17.641Z,7.20
2023-01-20T13:47:51.895Z,7.50
2023-01-20T13:50:24.690Z,7.53
2023-01-20T13:53:06.017Z,7.33
2023-01-20T13:55:48.533Z,6.73
2023-01-20T13:58:16.581Z,6.83
2023-01-20T14:00:45.972Z,6.83
2023-01-20T14:03:18.889Z,7.07
2023-01-20T14:05:49.508Z,7.53
2023-01-20T14:08:17.500Z,6.80
2023-01-20T14:10:44.970Z,7.73
2023-01-20T14:13:12.835Z,6.90
2023-01-20T14:15:40.984Z,6.80
2023-01-20T14:18:17.889Z,6.17
2023-01-20T14:20:57.434Z,5.93
2023-01-20T14:23:33.302Z,5.30
2023-01-20T14:26:02.142Z,6.03
2023-01-20T14:28:30.133Z,6.10
2023-01-20T14:31:21.213Z,5.90
2023-01-20T14:33:52.583Z,6.10
2023-01-20T14:36:21.979Z,5.90
2023-01-20T14:38:57.163Z,6.00
2023-01-20T14:41:31.147Z,5.93
2023-01-20T14:43:58.823Z,5.50
2023-01-20T14:46:26.533Z,5.67
2023-01-20T14:48:56.478Z,5.93
2023-01-20T14:51:24.062Z,5.90
2023-01-20T14:54:21.731Z,5.73
2023-01-20T14:56:49.221Z,5.97
2023-01-20T14:59:19.211Z,5.73
2023-01-20T15:01:51.541Z,6.10
2023-01-20T15:04:20.389Z,6.07
2023-01-20T15:06:52.276Z,6.13
2023-01-20T15:09:37.497Z,5.70
2023-01-20T15:12:23.759Z,6.30
2023-01-20T15:14:59.658Z,6.30
2023-01-20T15:17:27.077Z,6.83
2023-01-20T15:19:55.889Z,6.70
2023-01-20T15:22:24.677Z,6.37
2023-01-20T15:24:53.009Z,6.33
2023-01-20T15:27:23.122Z,6.63
2023-01-20T15:30:01.093Z,5.80
2023-01-20T15:32:28.560Z,6.63
2023-01-20T15:34:57.404Z,6.43
2023-01-20T15:37:24.890Z,6.57
2023-01-20T15:39:54.727Z,6.53
2023-01-20T15:42:24.725Z,6.87
2023-01-20T15:44:52.224Z,7.73
2023-01-20T15:47:21.331Z,6.73
2023-01-20T15:49:48.855Z,6.93
2023-01-20T15:52:17.727Z,7.20
2023-01-20T15:54:45.279Z,6.83
2023-01-20T15:57:14.448Z,7.07
2023-01-20T15:59:45.379Z,7.10
2023-01-20T16:02:20.256Z,7.53
2023-01-20T16:04:47.870Z,8.20
2023-01-20T16:07:16.690Z,8.50
2023-01-20T16:09:46.669Z,7.40
2023-01-20T16:12:14.608Z,6.83
2023-01-20T16:14:42.250Z,7.57
2023-01-20T16:17:12.877Z,7.73
2023-01-20T16:19:40.809Z,7.37
2023-01-20T16:22:08.722Z,7.47
2023-01-20T16:24:38.088Z,7.17
2023-01-20T16:27:14.168Z,7.60
2023-01-20T16:29:41.601Z,7.50
2023-01-20T16:32:09.234Z,8.37
2023-01-20T16:34:36.938Z,7.30
2023-01-20T16:37:04.369Z,6.97
2023-01-20T16:39:32.197Z,7.20
2023-01-20T16:41:59.882Z,7.23
2023-01-20T16:44:29.177Z,7.00
2023-01-20T16:46:57.346Z,7.67
2023-01-20T16:49:24.789Z,7.30
2023-01-20T16:51:52.312Z,7.20
2023-01-20T16:54:20.966Z,7.30
2023-01-20T16:56:48.488Z,7.47
2023-01-20T16:59:17.320Z,7.47
2023-01-20T17:01:48.061Z,7.30
2023-01-20T17:04:15.954Z,7.40
2023-01-20T17:06:44.707Z,7.13
2023-01-20T17:09:12.263Z,7.10
2023-01-20T17:11:40.391Z,7.07
2023-01-20T17:14:08.586Z,7.23
2023-01-20T17:16:36.381Z,7.20
2023-01-20T17:19:05.324Z,7.27
2023-01-20T17:21:35.843Z,7.10
2023-01-20T17:24:04.453Z,7.00
2023-01-20T17:26:31.956Z,7.50
2023-01-20T17:29:02.172Z,8.03
2023-01-20T17:31:31.772Z,7.40
2023-01-20T17:33:59.472Z,7.60
2023-01-20T17:36:29.513Z,7.63
2023-01-20T17:38:58.227Z,7.33
2023-01-20T17:41:26.910Z,6.83
2023-01-20T17:43:54.674Z,6.97
2023-01-20T17:46:23.294Z,8.00
2023-01-20T17:48:51.584Z,7.67
2023-01-20T17:51:20.260Z,8.37
2023-01-20T17:53:49.337Z,8.13
2023-01-20T17:56:18.029Z,8.00
2023-01-20T17:58:46.253Z,8.33
2023-01-20T18:01:14.453Z,8.03
2023-01-20T18:03:43.166Z,7.97
2023-01-20T18:06:11.846Z,8.30
2023-01-20T18:08:39.363Z,7.70
2023-01-20T18:11:09.493Z,8.00
2023-01-20T18:13:37.753Z,8.47
2023-01-20T18:16:05.647Z,8.50
2023-01-20T18:18:33.099Z,8.07
2023-01-20T18:21:08.112Z,8.07
2023-01-20T18:23:38.192Z,8.17
2023-01-20T18:26:08.408Z,7.90
2023-01-20T18:28:37.116Z,7.83
2023-01-20T18:31:08.865Z,8.00
2023-01-20T18:33:38.442Z,7.40
2023-01-20T18:36:06.255Z,8.43
2023-01-20T18:38:34.396Z,8.67
2023-01-20T18:41:02.104Z,8.23
2023-01-20T18:43:31.208Z,8.17
2023-01-20T18:45:58.679Z,9.53
2023-01-20T18:48:26.736Z,8.90
2023-01-20T18:50:59.551Z,9.00
2023-01-20T18:53:27.254Z,8.50
2023-01-20T18:55:59.723Z,8.43
2023-01-20T18:58:28.602Z,8.90
2023-01-20T19:01:03.281Z,8.23
2023-01-20T19:03:30.951Z,9.03
2023-01-20T19:06:03.609Z,9.40
2023-01-20T19:08:32.286Z,8.67
2023-01-20T19:11:00.441Z,9.07
2023-01-20T19:13:28.630Z,9.43
2023-01-20T19:15:57.530Z,9.33
2023-01-20T19:18:25.240Z,8.63
2023-01-20T19:20:52.948Z,10.07
2023-01-20T19:23:20.784Z,10.20
2023-01-20T19:25:48.823Z,11.17
2023-01-20T19:28:16.273Z,10.47
2023-01-20T19:30:44.078Z,11.30
2023-01-20T19:33:12.902Z,12.63
2023-01-20T19:35:42.127Z,15.90
2023-01-20T19:38:09.677Z,12.87
2023-01-20T19:40:37.479Z,14.47
2023-01-20T19:43:04.946Z,12.97
2023-01-20T19:45:45.312Z,11.23
2023-01-20T19:48:14.678Z,10.73
2023-01-20T19:50:43.027Z,10.77
2023-01-20T19:53:11.709Z,10.27
2023-01-20T19:55:40.708Z,10.40
2023-01-20T19:58:08.168Z,10.27
2023-01-20T20:00:35.715Z,10.07
2023-01-20T20:03:06.463Z,9.43
2023-01-20T20:05:41.016Z,8.80
2023-01-20T20:08:10.134Z,9.00
2023-01-20T20:10:41.569Z,8.97
2023-01-20T20:13:08.967Z,9.77
2023-01-20T20:15:36.508Z,9.87
2023-01-20T20:18:06.497Z,9.70
2023-01-20T20:20:34.669Z,10.43
2023-01-20T20:23:04.760Z,10.90
2023-01-20T20:25:32.192Z,10.10
2023-01-20T20:27:59.783Z,9.67
2023-01-20T20:30:27.367Z,9.83
2023-01-20T20:32:54.856Z,9.63
2023-01-20T20:35:22.317Z,10.30
2023-01-20T20:37:49.795Z,10.53
2023-01-20T20:40:19.069Z,10.10
2023-01-20T20:42:48.490Z,10.30
2023-01-20T20:45:16.352Z,10.80
2023-01-20T20:47:44.500Z,10.80
2023-01-20T20:50:13.220Z,10.43
2023-01-20T20:52:41.449Z,10.33
2023-01-20T20:55:11.485Z,10.60
2023-01-20T20:57:41.108Z,10.87
2023-01-20T21:00:09.520Z,10.60
2023-01-20T21:02:39.600Z,10.40
2023-01-20T21:05:07.768Z,10.47
2023-01-20T21:07:35.213Z,11.27
2023-01-20T21:10:04.614Z,10.43
2023-01-20T21:12:32.083Z,10.83
2023-01-20T21:15:00.916Z,10.53
2023-01-20T21:17:28.368Z,10.37
2023-01-20T21:19:55.829Z,10.77
2023-01-20T21:22:23.475Z,10.30
2023-01-20T21:24:51.037Z,10.80
2023-01-20T21:27:18.742Z,10.60
2023-01-20T21:29:46.563Z,10.70
2023-01-20T21:32:15.778Z,11.00
2023-01-20T21:34:43.514Z,10.20
2023-01-20T21:37:10.938Z,10.67
2023-01-20T21:39:38.352Z,10.67
2023-01-20T21:42:06.168Z,10.40
2023-01-20T21:44:34.012Z,9.30
2023-01-20T21:47:02.267Z,9.93
2023-01-20T21:49:48.928Z,10.17
2023-01-20T21:52:35.314Z,10.30
2023-01-20T21:55:03.221Z,10.03
2023-01-20T21:57:32.525Z,9.80
2023-01-20T22:00:00.242Z,10.17
2023-01-20T22:02:29.010Z,9.87
2023-01-20T22:04:57.953Z,10.20
2023-01-20T22:07:25.429Z,10.53
2023-01-20T22:09:52.899Z,11.23
2023-01-20T22:12:20.387Z,10.67
2023-01-20T22:14:48.179Z,10.83
2023-01-20T22:17:16.327Z,10.00
2023-01-20T22:19:44.468Z,10.23
2023-01-20T22:22:15.204Z,10.20
2023-01-20T22:24:42.865Z,10.30
2023-01-20T22:27:10.321Z,10.30
2023-01-20T22:29:39.174Z,10.63
2023-01-20T22:32:06.747Z,10.20
2023-01-20T22:34:34.899Z,10.30
2023-01-20T22:37:03.248Z,9.73
2023-01-20T22:39:32.399Z,10.37
2023-01-20T22:41:59.863Z,10.27
2023-01-20T22:44:27.293Z,11.17
2023-01-20T22:46:54.772Z,10.83
2023-01-20T22:49:22.279Z,11.47
2023-01-20T22:51:49.800Z,11.33
2023-01-20T22:54:17.298Z,10.53
2023-01-20T22:56:46.082Z,11.00
2023-01-20T22:59:14.018Z,11.10
2023-01-20T23:01:41.580Z,11.33
2023-01-20T23:04:10.580Z,11.30
2023-01-20T23:06:39.261Z,11.23
2023-01-20T23:09:07.783Z,10.43
2023-01-20T23:11:36.207Z,10.03
2023-01-20T23:14:05.032Z,10.90
2023-01-20T23:16:32.958Z,10.43
2023-01-20T23:19:00.515Z,10.23
2023-01-20T23:21:27.929Z,11.90
2023-01-20T23:23:55.780Z,22.57
2023-01-20T23:26:24.251Z,14.50
2023-01-20T23:28:53.406Z,13.23
2023-01-20T23:31:23.297Z,14.20
2023-01-20T23:33:51.698Z,13.80
2023-01-20T23:36:20.649Z,12.40
2023-01-20T23:38:48.388Z,9.90
2023-01-20T23:41:16.276Z,11.03
2023-01-20T23:43:43.745Z,10.40
2023-01-20T23:46:11.491Z,11.23
2023-01-20T23:48:40.503Z,10.00
2023-01-20T23:51:08.264Z,11.10
2023-01-20T23:53:38.288Z,10.20
2023-01-20T23:56:07.084Z,9.60
2023-01-20T23:58:34.580Z,10.07
